sensor_id;sensor_type;location;lat;lon;timestamp;P1;durP1;ratioP1;P2;durP2;ratioP2
16969;SDS011;8601;48.718;8.992;2023-03-08T00:01:15;10.90;;;7.30;;
16969;SDS011;8601;48.718;8.992;2023-03-08T00:03:43;11.83;;;8.07;;
16969;SDS011;8601;48.718;8.992;2023-03-08T00:06:11;9.90;;;7.13;;
16969;SDS011;8601;48.718;8.992;2023-03-08T00:08:41;10.70;;;8.07;;
16969;SDS011;8601;48.718;8.992;2023-03-08T00:11:08;11.70;;;7.43;;
16969;SDS011;8601;48.718;8.992;2023-03-08T00:13:36;13.00;;;8.33;;
16969;SDS011;8601;48.718;8.992;2023-03-08T00:16:04;10.63;;;8.17;;
16969;SDS011;8601;48.718;8.992;2023-03-08T00:18:32;10.40;;;7.53;;
16969;SDS011;8601;48.718;8.992;2023-03-08T00:21:01;9.83;;;7.97;;
16969;SDS011;8601;48.718;8.992;2023-03-08T00:23:30;11.33;;;7.97;;
16969;SDS011;8601;48.718;8.992;2023-03-08T00:25:59;11.07;;;7.60;;
16969;SDS011;8601;48.718;8.992;2023-03-08T00:28:27;10.70;;;8.00;;
16969;SDS011;8601;48.718;8.992;2023-03-08T00:30:54;10.83;;;7.87;;
16969;SDS011;8601;48.718;8.992;2023-03-08T00:33:22;12.40;;;8.63;;
16969;SDS011;8601;48.718;8.992;2023-03-08T00:35:56;10.03;;;7.60;;
16969;SDS011;8601;48.718;8.992;2023-03-08T00:38:23;11.37;;;7.93;;
16969;SDS011;8601;48.718;8.992;2023-03-08T00:40:51;17.43;;;9.87;;
16969;SDS011;8601;48.718;8.992;2023-03-08T00:43:20;11.70;;;9.07;;
16969;SDS011;8601;48.718;8.992;2023-03-08T00:45:52;11.33;;;8.40;;
16969;SDS011;8601;48.718;8.992;2023-03-08T00:48:19;11.80;;;8.70;;
16969;SDS011;8601;48.718;8.992;2023-03-08T00:50:47;9.80;;;8.33;;
16969;SDS011;8601;48.718;8.992;2023-03-08T00:53:14;11.53;;;7.87;;
16969;SDS011;8601;48.718;8.992;2023-03-08T00:55:46;13.57;;;9.77;;
16969;SDS011;8601;48.718;8.992;2023-03-08T00:58:15;11.63;;;9.20;;
16969;SDS011;8601;48.718;8.992;2023-03-08T01:00:43;11.10;;;8.27;;
16969;SDS011;8601;48.718;8.992;2023-03-08T01:03:10;11.87;;;9.00;;
16969;SDS011;8601;48.718;8.992;2023-03-08T01:05:38;10.83;;;8.57;;
16969;SDS011;8601;48.718;8.992;2023-03-08T01:08:06;11.07;;;8.77;;
16969;SDS011;8601;48.718;8.992;2023-03-08T01:10:34;11.23;;;8.97;;
16969;SDS011;8601;48.718;8.992;2023-03-08T01:13:01;12.87;;;9.33;;
16969;SDS011;8601;48.718;8.992;2023-03-08T01:15:33;12.17;;;9.00;;
16969;SDS011;8601;48.718;8.992;2023-03-08T01:18:02;12.57;;;8.93;;
16969;SDS011;8601;48.718;8.992;2023-03-08T01:20:29;13.03;;;9.67;;
16969;SDS011;8601;48.718;8.992;2023-03-08T01:22:56;10.93;;;9.03;;
16969;SDS011;8601;48.718;8.992;2023-03-08T01:27:54;15.10;;;10.57;;
16969;SDS011;8601;48.718;8.992;2023-03-08T01:30:21;13.03;;;10.43;;
16969;SDS011;8601;48.718;8.992;2023-03-08T01:32:48;14.20;;;10.00;;
16969;SDS011;8601;48.718;8.992;2023-03-08T01:35:16;13.90;;;9.93;;
16969;SDS011;8601;48.718;8.992;2023-03-08T01:37:49;14.67;;;9.20;;
16969;SDS011;8601;48.718;8.992;2023-03-08T01:40:18;13.37;;;10.27;;
16969;SDS011;8601;48.718;8.992;2023-03-08T01:42:45;11.83;;;9.27;;
16969;SDS011;8601;48.718;8.992;2023-03-08T01:48:16;10.53;;;9.30;;
16969;SDS011;8601;48.718;8.992;2023-03-08T01:50:46;13.43;;;9.40;;
16969;SDS011;8601;48.718;8.992;2023-03-08T01:53:13;12.13;;;9.33;;
16969;SDS011;8601;48.718;8.992;2023-03-08T01:55:42;12.23;;;9.13;;
16969;SDS011;8601;48.718;8.992;2023-03-08T01:58:09;14.23;;;9.53;;
16969;SDS011;8601;48.718;8.992;2023-03-08T02:00:36;15.43;;;9.60;;
16969;SDS011;8601;48.718;8.992;2023-03-08T02:03:05;11.20;;;9.17;;
16969;SDS011;8601;48.718;8.992;2023-03-08T02:05:35;12.80;;;8.90;;
16969;SDS011;8601;48.718;8.992;2023-03-08T02:08:06;12.80;;;9.80;;
16969;SDS011;8601;48.718;8.992;2023-03-08T02:10:33;12.80;;;9.13;;
16969;SDS011;8601;48.718;8.992;2023-03-08T02:13:02;12.60;;;9.90;;
16969;SDS011;8601;48.718;8.992;2023-03-08T02:15:30;12.23;;;9.27;;
16969;SDS011;8601;48.718;8.992;2023-03-08T02:17:57;11.47;;;9.20;;
16969;SDS011;8601;48.718;8.992;2023-03-08T02:20:25;13.67;;;9.47;;
16969;SDS011;8601;48.718;8.992;2023-03-08T02:23:06;15.13;;;10.17;;
16969;SDS011;8601;48.718;8.992;2023-03-08T02:25:37;12.60;;;9.37;;
16969;SDS011;8601;48.718;8.992;2023-03-08T02:28:05;12.83;;;9.50;;
16969;SDS011;8601;48.718;8.992;2023-03-08T02:30:35;14.07;;;10.23;;
16969;SDS011;8601;48.718;8.992;2023-03-08T02:33:02;10.20;;;8.63;;
16969;SDS011;8601;48.718;8.992;2023-03-08T02:35:30;10.47;;;9.17;;
16969;SDS011;8601;48.718;8.992;2023-03-08T02:37:58;13.97;;;10.00;;
16969;SDS011;8601;48.718;8.992;2023-03-08T02:40:26;13.07;;;9.33;;
16969;SDS011;8601;48.718;8.992;2023-03-08T02:42:53;13.87;;;9.80;;
16969;SDS011;8601;48.718;8.992;2023-03-08T02:45:20;12.67;;;9.70;;
16969;SDS011;8601;48.718;8.992;2023-03-08T02:47:47;11.70;;;9.00;;
16969;SDS011;8601;48.718;8.992;2023-03-08T02:50:15;13.80;;;9.47;;
16969;SDS011;8601;48.718;8.992;2023-03-08T02:52:42;15.87;;;9.33;;
16969;SDS011;8601;48.718;8.992;2023-03-08T02:55:09;12.00;;;8.80;;
16969;SDS011;8601;48.718;8.992;2023-03-08T02:57:37;13.37;;;9.00;;
16969;SDS011;8601;48.718;8.992;2023-03-08T03:00:05;14.70;;;10.57;;
16969;SDS011;8601;48.718;8.992;2023-03-08T03:02:32;14.73;;;9.97;;
16969;SDS011;8601;48.718;8.992;2023-03-08T03:05:07;13.43;;;9.40;;
16969;SDS011;8601;48.718;8.992;2023-03-08T03:07:36;15.50;;;9.70;;
16969;SDS011;8601;48.718;8.992;2023-03-08T03:10:04;12.87;;;8.83;;
16969;SDS011;8601;48.718;8.992;2023-03-08T03:12:33;13.97;;;10.23;;
16969;SDS011;8601;48.718;8.992;2023-03-08T03:15:02;10.20;;;8.57;;
16969;SDS011;8601;48.718;8.992;2023-03-08T03:17:30;13.73;;;9.20;;
16969;SDS011;8601;48.718;8.992;2023-03-08T03:19:57;13.27;;;9.60;;
16969;SDS011;8601;48.718;8.992;2023-03-08T03:22:25;13.33;;;9.07;;
16969;SDS011;8601;48.718;8.992;2023-03-08T03:24:52;11.23;;;8.90;;
16969;SDS011;8601;48.718;8.992;2023-03-08T03:27:19;12.70;;;9.00;;
16969;SDS011;8601;48.718;8.992;2023-03-08T03:29:47;12.40;;;8.63;;
16969;SDS011;8601;48.718;8.992;2023-03-08T03:32:16;11.67;;;8.53;;
16969;SDS011;8601;48.718;8.992;2023-03-08T03:34:42;11.80;;;8.43;;
16969;SDS011;8601;48.718;8.992;2023-03-08T03:37:09;12.27;;;8.93;;
16969;SDS011;8601;48.718;8.992;2023-03-08T03:39:37;13.37;;;9.10;;
16969;SDS011;8601;48.718;8.992;2023-03-08T03:42:05;11.57;;;9.03;;
16969;SDS011;8601;48.718;8.992;2023-03-08T03:44:32;11.33;;;8.83;;
16969;SDS011;8601;48.718;8.992;2023-03-08T03:46:59;10.87;;;8.83;;
16969;SDS011;8601;48.718;8.992;2023-03-08T03:49:28;11.30;;;8.07;;
16969;SDS011;8601;48.718;8.992;2023-03-08T03:51:55;12.00;;;7.97;;
16969;SDS011;8601;48.718;8.992;2023-03-08T03:54:22;13.13;;;8.03;;
16969;SDS011;8601;48.718;8.992;2023-03-08T03:56:49;11.23;;;7.90;;
16969;SDS011;8601;48.718;8.992;2023-03-08T03:59:15;11.47;;;8.50;;
16969;SDS011;8601;48.718;8.992;2023-03-08T04:01:43;12.10;;;8.43;;
16969;SDS011;8601;48.718;8.992;2023-03-08T04:04:10;11.57;;;8.00;;
16969;SDS011;8601;48.718;8.992;2023-03-08T04:06:38;10.43;;;7.80;;
16969;SDS011;8601;48.718;8.992;2023-03-08T04:09:06;11.50;;;7.60;;
16969;SDS011;8601;48.718;8.992;2023-03-08T04:11:38;11.13;;;7.63;;
16969;SDS011;8601;48.718;8.992;2023-03-08T04:14:06;10.40;;;8.50;;
16969;SDS011;8601;48.718;8.992;2023-03-08T04:16:34;11.10;;;8.40;;
16969;SDS011;8601;48.718;8.992;2023-03-08T04:19:04;10.97;;;8.27;;
16969;SDS011;8601;48.718;8.992;2023-03-08T04:21:33;11.47;;;8.67;;
16969;SDS011;8601;48.718;8.992;2023-03-08T04:24:01;10.87;;;8.53;;
16969;SDS011;8601;48.718;8.992;2023-03-08T04:26:29;12.27;;;8.30;;
16969;SDS011;8601;48.718;8.992;2023-03-08T04:28:56;12.30;;;9.37;;
16969;SDS011;8601;48.718;8.992;2023-03-08T04:31:24;13.10;;;9.03;;
16969;SDS011;8601;48.718;8.992;2023-03-08T04:33:53;11.93;;;8.50;;
16969;SDS011;8601;48.718;8.992;2023-03-08T04:36:22;11.33;;;8.40;;
16969;SDS011;8601;48.718;8.992;2023-03-08T04:38:51;12.67;;;9.20;;
16969;SDS011;8601;48.718;8.992;2023-03-08T04:41:20;13.00;;;8.80;;
16969;SDS011;8601;48.718;8.992;2023-03-08T04:43:48;12.23;;;9.20;;
16969;SDS011;8601;48.718;8.992;2023-03-08T04:46:17;13.27;;;8.77;;
16969;SDS011;8601;48.718;8.992;2023-03-08T04:48:46;12.20;;;8.73;;
16969;SDS011;8601;48.718;8.992;2023-03-08T04:51:14;11.70;;;8.80;;
16969;SDS011;8601;48.718;8.992;2023-03-08T04:53:49;11.50;;;8.50;;
16969;SDS011;8601;48.718;8.992;2023-03-08T04:56:16;10.40;;;8.43;;
16969;SDS011;8601;48.718;8.992;2023-03-08T04:58:44;14.77;;;10.00;;
16969;SDS011;8601;48.718;8.992;2023-03-08T05:01:12;11.57;;;8.90;;
16969;SDS011;8601;48.718;8.992;2023-03-08T05:03:41;12.07;;;9.00;;
16969;SDS011;8601;48.718;8.992;2023-03-08T05:06:08;12.77;;;8.67;;
16969;SDS011;8601;48.718;8.992;2023-03-08T05:08:35;12.00;;;9.23;;
16969;SDS011;8601;48.718;8.992;2023-03-08T05:11:03;12.03;;;8.87;;
16969;SDS011;8601;48.718;8.992;2023-03-08T05:13:31;11.27;;;9.23;;
16969;SDS011;8601;48.718;8.992;2023-03-08T05:16:01;12.73;;;9.23;;
16969;SDS011;8601;48.718;8.992;2023-03-08T05:18:28;13.90;;;9.27;;
16969;SDS011;8601;48.718;8.992;2023-03-08T05:20:57;14.70;;;9.20;;
16969;SDS011;8601;48.718;8.992;2023-03-08T05:23:26;13.50;;;9.93;;
16969;SDS011;8601;48.718;8.992;2023-03-08T05:25:55;12.23;;;9.50;;
16969;SDS011;8601;48.718;8.992;2023-03-08T05:28:24;12.03;;;9.10;;
16969;SDS011;8601;48.718;8.992;2023-03-08T05:30:59;12.73;;;9.83;;
16969;SDS011;8601;48.718;8.992;2023-03-08T05:33:28;14.27;;;10.17;;
16969;SDS011;8601;48.718;8.992;2023-03-08T05:35:55;13.27;;;9.87;;
16969;SDS011;8601;48.718;8.992;2023-03-08T05:38:23;12.70;;;9.13;;
16969;SDS011;8601;48.718;8.992;2023-03-08T05:40:51;12.50;;;9.03;;
16969;SDS011;8601;48.718;8.992;2023-03-08T05:43:18;14.13;;;9.70;;
16969;SDS011;8601;48.718;8.992;2023-03-08T05:45:53;15.27;;;9.90;;
16969;SDS011;8601;48.718;8.992;2023-03-08T05:48:23;13.53;;;10.00;;
16969;SDS011;8601;48.718;8.992;2023-03-08T05:50:50;13.80;;;9.60;;
16969;SDS011;8601;48.718;8.992;2023-03-08T05:53:17;12.97;;;9.30;;
16969;SDS011;8601;48.718;8.992;2023-03-08T05:55:45;14.70;;;10.10;;
16969;SDS011;8601;48.718;8.992;2023-03-08T05:58:12;12.70;;;9.30;;
16969;SDS011;8601;48.718;8.992;2023-03-08T06:00:39;12.93;;;9.80;;
16969;SDS011;8601;48.718;8.992;2023-03-08T06:03:06;13.60;;;10.03;;
16969;SDS011;8601;48.718;8.992;2023-03-08T06:05:34;12.47;;;9.33;;
16969;SDS011;8601;48.718;8.992;2023-03-08T06:08:01;12.70;;;10.10;;
16969;SDS011;8601;48.718;8.992;2023-03-08T06:10:28;12.53;;;9.53;;
16969;SDS011;8601;48.718;8.992;2023-03-08T06:12:55;14.43;;;9.10;;
16969;SDS011;8601;48.718;8.992;2023-03-08T06:15:22;16.50;;;10.63;;
16969;SDS011;8601;48.718;8.992;2023-03-08T06:17:50;15.07;;;10.70;;
16969;SDS011;8601;48.718;8.992;2023-03-08T06:20:18;15.97;;;10.63;;
16969;SDS011;8601;48.718;8.992;2023-03-08T06:22:46;14.60;;;10.17;;
16969;SDS011;8601;48.718;8.992;2023-03-08T06:25:13;13.73;;;10.03;;
16969;SDS011;8601;48.718;8.992;2023-03-08T06:27:40;14.40;;;10.40;;
16969;SDS011;8601;48.718;8.992;2023-03-08T06:30:08;13.00;;;9.80;;
16969;SDS011;8601;48.718;8.992;2023-03-08T06:32:35;14.80;;;10.77;;
16969;SDS011;8601;48.718;8.992;2023-03-08T06:35:02;16.53;;;11.00;;
16969;SDS011;8601;48.718;8.992;2023-03-08T06:37:31;14.50;;;10.70;;
16969;SDS011;8601;48.718;8.992;2023-03-08T06:40:00;16.50;;;11.00;;
16969;SDS011;8601;48.718;8.992;2023-03-08T06:42:27;15.30;;;10.53;;
16969;SDS011;8601;48.718;8.992;2023-03-08T06:44:54;15.67;;;11.10;;
16969;SDS011;8601;48.718;8.992;2023-03-08T06:47:22;15.43;;;11.13;;
16969;SDS011;8601;48.718;8.992;2023-03-08T06:49:49;14.83;;;10.93;;
16969;SDS011;8601;48.718;8.992;2023-03-08T06:52:17;14.53;;;10.93;;
16969;SDS011;8601;48.718;8.992;2023-03-08T06:54:44;15.07;;;11.67;;
16969;SDS011;8601;48.718;8.992;2023-03-08T06:57:13;15.03;;;11.67;;
16969;SDS011;8601;48.718;8.992;2023-03-08T06:59:40;17.03;;;11.40;;
16969;SDS011;8601;48.718;8.992;2023-03-08T07:02:08;16.80;;;11.87;;
16969;SDS011;8601;48.718;8.992;2023-03-08T07:04:35;15.57;;;11.93;;
16969;SDS011;8601;48.718;8.992;2023-03-08T07:07:02;14.83;;;11.90;;
16969;SDS011;8601;48.718;8.992;2023-03-08T07:09:32;18.63;;;11.90;;
16969;SDS011;8601;48.718;8.992;2023-03-08T07:11:59;19.33;;;10.67;;
16969;SDS011;8601;48.718;8.992;2023-03-08T07:14:27;15.57;;;10.73;;
16969;SDS011;8601;48.718;8.992;2023-03-08T07:16:56;13.53;;;10.43;;
16969;SDS011;8601;48.718;8.992;2023-03-08T07:19:23;13.10;;;9.77;;
16969;SDS011;8601;48.718;8.992;2023-03-08T07:21:50;14.07;;;10.03;;
16969;SDS011;8601;48.718;8.992;2023-03-08T07:24:17;11.63;;;9.33;;
16969;SDS011;8601;48.718;8.992;2023-03-08T07:26:44;14.03;;;10.13;;
16969;SDS011;8601;48.718;8.992;2023-03-08T07:29:11;13.23;;;9.60;;
16969;SDS011;8601;48.718;8.992;2023-03-08T07:31:39;13.70;;;10.53;;
16969;SDS011;8601;48.718;8.992;2023-03-08T07:34:12;14.80;;;10.83;;
16969;SDS011;8601;48.718;8.992;2023-03-08T07:36:38;13.73;;;10.53;;
16969;SDS011;8601;48.718;8.992;2023-03-08T07:39:11;12.90;;;10.50;;
16969;SDS011;8601;48.718;8.992;2023-03-08T07:41:38;16.83;;;11.63;;
16969;SDS011;8601;48.718;8.992;2023-03-08T07:44:05;14.03;;;10.70;;
16969;SDS011;8601;48.718;8.992;2023-03-08T07:46:32;16.20;;;11.77;;
16969;SDS011;8601;48.718;8.992;2023-03-08T07:49:00;12.03;;;9.80;;
16969;SDS011;8601;48.718;8.992;2023-03-08T07:51:30;12.13;;;9.87;;
16969;SDS011;8601;48.718;8.992;2023-03-08T07:53:57;13.03;;;10.27;;
16969;SDS011;8601;48.718;8.992;2023-03-08T07:56:25;12.87;;;9.80;;
16969;SDS011;8601;48.718;8.992;2023-03-08T07:58:52;12.13;;;9.57;;
16969;SDS011;8601;48.718;8.992;2023-03-08T08:01:21;14.90;;;10.90;;
16969;SDS011;8601;48.718;8.992;2023-03-08T08:03:49;13.00;;;10.33;;
16969;SDS011;8601;48.718;8.992;2023-03-08T08:06:17;13.07;;;10.93;;
16969;SDS011;8601;48.718;8.992;2023-03-08T08:08:45;13.60;;;10.63;;
16969;SDS011;8601;48.718;8.992;2023-03-08T08:11:13;14.77;;;10.40;;
16969;SDS011;8601;48.718;8.992;2023-03-08T08:13:42;16.70;;;10.47;;
16969;SDS011;8601;48.718;8.992;2023-03-08T08:16:10;16.03;;;10.73;;
16969;SDS011;8601;48.718;8.992;2023-03-08T08:18:38;14.00;;;11.13;;
16969;SDS011;8601;48.718;8.992;2023-03-08T08:21:08;14.53;;;10.90;;
16969;SDS011;8601;48.718;8.992;2023-03-08T08:23:38;23.97;;;16.80;;
16969;SDS011;8601;48.718;8.992;2023-03-08T08:26:06;22.67;;;12.77;;
16969;SDS011;8601;48.718;8.992;2023-03-08T08:28:35;15.93;;;11.73;;
16969;SDS011;8601;48.718;8.992;2023-03-08T08:31:05;18.57;;;13.73;;
16969;SDS011;8601;48.718;8.992;2023-03-08T08:33:33;22.00;;;16.00;;
16969;SDS011;8601;48.718;8.992;2023-03-08T08:36:02;19.93;;;13.53;;
16969;SDS011;8601;48.718;8.992;2023-03-08T08:38:30;15.73;;;11.90;;
16969;SDS011;8601;48.718;8.992;2023-03-08T08:40:59;20.10;;;14.27;;
16969;SDS011;8601;48.718;8.992;2023-03-08T08:43:27;16.70;;;12.57;;
16969;SDS011;8601;48.718;8.992;2023-03-08T08:45:54;16.90;;;11.47;;
16969;SDS011;8601;48.718;8.992;2023-03-08T08:48:24;15.90;;;11.40;;
16969;SDS011;8601;48.718;8.992;2023-03-08T08:50:52;15.77;;;12.50;;
16969;SDS011;8601;48.718;8.992;2023-03-08T08:53:20;14.33;;;11.03;;
16969;SDS011;8601;48.718;8.992;2023-03-08T08:55:48;15.47;;;11.80;;
16969;SDS011;8601;48.718;8.992;2023-03-08T08:58:16;15.50;;;11.33;;
16969;SDS011;8601;48.718;8.992;2023-03-08T09:00:43;16.93;;;12.57;;
16969;SDS011;8601;48.718;8.992;2023-03-08T09:03:10;16.57;;;11.80;;
16969;SDS011;8601;48.718;8.992;2023-03-08T09:05:38;17.70;;;11.30;;
16969;SDS011;8601;48.718;8.992;2023-03-08T09:08:07;16.27;;;11.53;;
16969;SDS011;8601;48.718;8.992;2023-03-08T09:10:42;14.77;;;11.43;;
16969;SDS011;8601;48.718;8.992;2023-03-08T09:13:09;17.10;;;11.63;;
16969;SDS011;8601;48.718;8.992;2023-03-08T09:15:38;16.00;;;11.43;;
16969;SDS011;8601;48.718;8.992;2023-03-08T09:18:04;18.00;;;12.13;;
16969;SDS011;8601;48.718;8.992;2023-03-08T09:20:31;16.53;;;11.73;;
16969;SDS011;8601;48.718;8.992;2023-03-08T09:23:00;15.80;;;11.77;;
16969;SDS011;8601;48.718;8.992;2023-03-08T09:25:27;17.10;;;12.47;;
16969;SDS011;8601;48.718;8.992;2023-03-08T09:27:54;16.03;;;12.97;;
16969;SDS011;8601;48.718;8.992;2023-03-08T09:30:21;18.97;;;13.80;;
16969;SDS011;8601;48.718;8.992;2023-03-08T09:32:49;16.87;;;13.30;;
16969;SDS011;8601;48.718;8.992;2023-03-08T09:35:23;16.60;;;13.37;;
16969;SDS011;8601;48.718;8.992;2023-03-08T09:37:50;16.87;;;12.07;;
16969;SDS011;8601;48.718;8.992;2023-03-08T09:40:17;16.00;;;12.57;;
16969;SDS011;8601;48.718;8.992;2023-03-08T09:42:52;15.83;;;12.00;;
16969;SDS011;8601;48.718;8.992;2023-03-08T09:45:24;18.17;;;12.30;;
16969;SDS011;8601;48.718;8.992;2023-03-08T09:47:56;15.53;;;11.67;;
16969;SDS011;8601;48.718;8.992;2023-03-08T09:50:31;12.80;;;11.27;;
16969;SDS011;8601;48.718;8.992;2023-03-08T09:53:03;15.43;;;11.50;;
16969;SDS011;8601;48.718;8.992;2023-03-08T09:55:36;12.67;;;9.47;;
16969;SDS011;8601;48.718;8.992;2023-03-08T09:58:12;14.23;;;10.37;;
16969;SDS011;8601;48.718;8.992;2023-03-08T10:00:45;13.73;;;10.53;;
16969;SDS011;8601;48.718;8.992;2023-03-08T10:03:19;13.20;;;9.47;;
16969;SDS011;8601;48.718;8.992;2023-03-08T10:05:59;11.20;;;9.10;;
16969;SDS011;8601;48.718;8.992;2023-03-08T10:08:37;13.03;;;9.60;;
16969;SDS011;8601;48.718;8.992;2023-03-08T10:11:12;10.67;;;8.70;;
16969;SDS011;8601;48.718;8.992;2023-03-08T10:13:46;11.50;;;8.80;;
16969;SDS011;8601;48.718;8.992;2023-03-08T10:16:15;11.90;;;8.97;;
16969;SDS011;8601;48.718;8.992;2023-03-08T10:18:48;10.93;;;8.17;;
16969;SDS011;8601;48.718;8.992;2023-03-08T10:21:18;10.13;;;8.63;;
16969;SDS011;8601;48.718;8.992;2023-03-08T10:23:47;12.23;;;8.20;;
16969;SDS011;8601;48.718;8.992;2023-03-08T10:26:17;10.90;;;8.53;;
16969;SDS011;8601;48.718;8.992;2023-03-08T10:28:44;9.70;;;8.03;;
16969;SDS011;8601;48.718;8.992;2023-03-08T10:31:17;9.23;;;7.33;;
16969;SDS011;8601;48.718;8.992;2023-03-08T10:33:47;8.83;;;7.67;;
16969;SDS011;8601;48.718;8.992;2023-03-08T10:36:17;8.30;;;5.77;;
16969;SDS011;8601;48.718;8.992;2023-03-08T10:38:55;9.03;;;6.57;;
16969;SDS011;8601;48.718;8.992;2023-03-08T10:41:23;5.23;;;4.73;;
16969;SDS011;8601;48.718;8.992;2023-03-08T10:43:52;7.27;;;4.07;;
16969;SDS011;8601;48.718;8.992;2023-03-08T10:46:20;4.50;;;3.60;;
16969;SDS011;8601;48.718;8.992;2023-03-08T10:48:51;3.30;;;3.00;;
16969;SDS011;8601;48.718;8.992;2023-03-08T10:51:21;3.30;;;2.53;;
16969;SDS011;8601;48.718;8.992;2023-03-08T10:53:52;2.57;;;2.37;;
16969;SDS011;8601;48.718;8.992;2023-03-08T10:56:23;2.03;;;1.93;;
16969;SDS011;8601;48.718;8.992;2023-03-08T10:58:55;2.27;;;2.07;;
16969;SDS011;8601;48.718;8.992;2023-03-08T11:01:24;3.43;;;2.10;;
16969;SDS011;8601;48.718;8.992;2023-03-08T11:03:58;2.30;;;2.10;;
16969;SDS011;8601;48.718;8.992;2023-03-08T11:06:27;5.07;;;2.03;;
16969;SDS011;8601;48.718;8.992;2023-03-08T11:09:02;2.10;;;1.90;;
16969;SDS011;8601;48.718;8.992;2023-03-08T11:11:43;3.17;;;1.97;;
16969;SDS011;8601;48.718;8.992;2023-03-08T11:14:10;2.33;;;1.60;;
16969;SDS011;8601;48.718;8.992;2023-03-08T11:25:36;2.77;;;2.27;;
16969;SDS011;8601;48.718;8.992;2023-03-08T11:31:08;2.03;;;1.83;;
16969;SDS011;8601;48.718;8.992;2023-03-08T11:36:42;2.50;;;1.90;;
16969;SDS011;8601;48.718;8.992;2023-03-08T11:39:16;2.37;;;1.50;;
16969;SDS011;8601;48.718;8.992;2023-03-08T11:41:48;1.87;;;1.77;;
16969;SDS011;8601;48.718;8.992;2023-03-08T11:44:39;1.60;;;1.50;;
16969;SDS011;8601;48.718;8.992;2023-03-08T11:50:23;1.83;;;1.73;;
16969;SDS011;8601;48.718;8.992;2023-03-08T11:52:58;2.07;;;1.70;;
16969;SDS011;8601;48.718;8.992;2023-03-08T11:55:34;1.93;;;1.77;;
16969;SDS011;8601;48.718;8.992;2023-03-08T11:58:16;2.53;;;1.97;;
16969;SDS011;8601;48.718;8.992;2023-03-08T12:00:55;1.73;;;1.63;;
16969;SDS011;8601;48.718;8.992;2023-03-08T12:03:27;2.50;;;2.27;;
16969;SDS011;8601;48.718;8.992;2023-03-08T12:05:59;1.97;;;1.87;;
16969;SDS011;8601;48.718;8.992;2023-03-08T12:08:33;1.80;;;1.70;;
16969;SDS011;8601;48.718;8.992;2023-03-08T12:11:06;1.80;;;1.70;;
16969;SDS011;8601;48.718;8.992;2023-03-08T12:13:37;2.57;;;1.80;;
16969;SDS011;8601;48.718;8.992;2023-03-08T12:16:07;1.90;;;1.63;;
16969;SDS011;8601;48.718;8.992;2023-03-08T12:18:41;1.60;;;1.50;;
16969;SDS011;8601;48.718;8.992;2023-03-08T12:21:13;2.20;;;1.80;;
16969;SDS011;8601;48.718;8.992;2023-03-08T12:23:50;5.73;;;1.97;;
16969;SDS011;8601;48.718;8.992;2023-03-08T12:26:32;2.33;;;1.60;;
16969;SDS011;8601;48.718;8.992;2023-03-08T12:29:02;2.43;;;1.70;;
16969;SDS011;8601;48.718;8.992;2023-03-08T12:31:41;1.30;;;1.20;;
16969;SDS011;8601;48.718;8.992;2023-03-08T12:34:11;2.27;;;1.50;;
16969;SDS011;8601;48.718;8.992;2023-03-08T12:36:40;2.27;;;1.53;;
16969;SDS011;8601;48.718;8.992;2023-03-08T12:39:22;1.50;;;1.40;;
16969;SDS011;8601;48.718;8.992;2023-03-08T12:41:59;1.70;;;1.30;;
16969;SDS011;8601;48.718;8.992;2023-03-08T12:44:29;1.73;;;1.40;;
16969;SDS011;8601;48.718;8.992;2023-03-08T12:46:57;3.70;;;1.60;;
16969;SDS011;8601;48.718;8.992;2023-03-08T12:49:28;1.63;;;1.53;;
16969;SDS011;8601;48.718;8.992;2023-03-08T12:51:59;3.77;;;1.63;;
16969;SDS011;8601;48.718;8.992;2023-03-08T12:54:30;1.30;;;1.20;;
16969;SDS011;8601;48.718;8.992;2023-03-08T12:56:59;4.47;;;1.50;;
16969;SDS011;8601;48.718;8.992;2023-03-08T12:59:31;1.80;;;1.63;;
16969;SDS011;8601;48.718;8.992;2023-03-08T13:02:02;2.20;;;1.77;;
16969;SDS011;8601;48.718;8.992;2023-03-08T13:04:47;3.00;;;1.60;;
16969;SDS011;8601;48.718;8.992;2023-03-08T13:07:20;2.07;;;1.50;;
16969;SDS011;8601;48.718;8.992;2023-03-08T13:10:00;2.10;;;1.83;;
16969;SDS011;8601;48.718;8.992;2023-03-08T13:12:36;1.60;;;1.43;;
16969;SDS011;8601;48.718;8.992;2023-03-08T13:15:25;1.63;;;1.23;;
16969;SDS011;8601;48.718;8.992;2023-03-08T13:17:57;1.83;;;1.60;;
16969;SDS011;8601;48.718;8.992;2023-03-08T13:20:32;2.00;;;1.80;;
16969;SDS011;8601;48.718;8.992;2023-03-08T13:23:18;2.97;;;1.80;;
16969;SDS011;8601;48.718;8.992;2023-03-08T13:25:56;1.70;;;1.60;;
16969;SDS011;8601;48.718;8.992;2023-03-08T13:28:40;1.87;;;1.60;;
16969;SDS011;8601;48.718;8.992;2023-03-08T13:31:11;2.80;;;2.03;;
16969;SDS011;8601;48.718;8.992;2023-03-08T13:33:40;1.90;;;1.40;;
16969;SDS011;8601;48.718;8.992;2023-03-08T13:36:14;1.80;;;1.70;;
16969;SDS011;8601;48.718;8.992;2023-03-08T13:38:44;1.90;;;1.47;;
16969;SDS011;8601;48.718;8.992;2023-03-08T13:41:30;1.70;;;1.40;;
16969;SDS011;8601;48.718;8.992;2023-03-08T13:44:01;1.60;;;1.50;;
16969;SDS011;8601;48.718;8.992;2023-03-08T13:46:29;2.23;;;1.73;;
16969;SDS011;8601;48.718;8.992;2023-03-08T13:48:56;1.70;;;1.60;;
16969;SDS011;8601;48.718;8.992;2023-03-08T13:51:23;1.50;;;1.40;;
16969;SDS011;8601;48.718;8.992;2023-03-08T13:53:54;3.33;;;1.53;;
16969;SDS011;8601;48.718;8.992;2023-03-08T13:56:22;1.77;;;1.30;;
16969;SDS011;8601;48.718;8.992;2023-03-08T13:58:51;1.30;;;1.20;;
16969;SDS011;8601;48.718;8.992;2023-03-08T14:01:20;1.57;;;1.10;;
16969;SDS011;8601;48.718;8.992;2023-03-08T14:03:49;1.20;;;1.10;;
16969;SDS011;8601;48.718;8.992;2023-03-08T14:06:18;1.33;;;1.17;;
16969;SDS011;8601;48.718;8.992;2023-03-08T14:08:47;1.10;;;1.10;;
16969;SDS011;8601;48.718;8.992;2023-03-08T14:11:15;1.10;;;1.10;;
16969;SDS011;8601;48.718;8.992;2023-03-08T14:13:44;0.90;;;0.90;;
16969;SDS011;8601;48.718;8.992;2023-03-08T14:16:27;1.20;;;1.10;;
16969;SDS011;8601;48.718;8.992;2023-03-08T14:18:57;1.00;;;1.00;;
16969;SDS011;8601;48.718;8.992;2023-03-08T14:21:25;1.30;;;1.00;;
16969;SDS011;8601;48.718;8.992;2023-03-08T14:23:54;0.83;;;0.83;;
16969;SDS011;8601;48.718;8.992;2023-03-08T14:26:24;1.00;;;1.00;;
16969;SDS011;8601;48.718;8.992;2023-03-08T14:29:09;1.00;;;0.90;;
16969;SDS011;8601;48.718;8.992;2023-03-08T14:31:49;0.87;;;0.80;;
16969;SDS011;8601;48.718;8.992;2023-03-08T14:34:23;0.70;;;0.70;;
16969;SDS011;8601;48.718;8.992;2023-03-08T14:36:53;0.83;;;0.83;;
16969;SDS011;8601;48.718;8.992;2023-03-08T14:39:22;1.23;;;1.07;;
16969;SDS011;8601;48.718;8.992;2023-03-08T14:41:52;0.80;;;0.80;;
16969;SDS011;8601;48.718;8.992;2023-03-08T14:44:20;0.90;;;0.90;;
16969;SDS011;8601;48.718;8.992;2023-03-08T14:46:50;2.13;;;0.83;;
16969;SDS011;8601;48.718;8.992;2023-03-08T14:49:23;0.80;;;0.80;;
16969;SDS011;8601;48.718;8.992;2023-03-08T14:51:51;3.23;;;1.00;;
16969;SDS011;8601;48.718;8.992;2023-03-08T14:54:20;1.30;;;1.30;;
16969;SDS011;8601;48.718;8.992;2023-03-08T14:56:57;1.03;;;0.97;;
16969;SDS011;8601;48.718;8.992;2023-03-08T14:59:24;0.87;;;0.87;;
16969;SDS011;8601;48.718;8.992;2023-03-08T15:01:53;1.07;;;0.97;;
16969;SDS011;8601;48.718;8.992;2023-03-08T15:04:21;0.90;;;0.90;;
16969;SDS011;8601;48.718;8.992;2023-03-08T15:06:52;2.20;;;1.00;;
16969;SDS011;8601;48.718;8.992;2023-03-08T15:09:20;1.20;;;1.10;;
16969;SDS011;8601;48.718;8.992;2023-03-08T15:14:25;1.83;;;1.13;;
16969;SDS011;8601;48.718;8.992;2023-03-08T15:16:55;1.37;;;1.00;;
16969;SDS011;8601;48.718;8.992;2023-03-08T15:19:22;1.00;;;1.00;;
16969;SDS011;8601;48.718;8.992;2023-03-08T15:21:49;2.60;;;1.00;;
16969;SDS011;8601;48.718;8.992;2023-03-08T15:24:24;1.30;;;1.20;;
16969;SDS011;8601;48.718;8.992;2023-03-08T15:26:51;1.20;;;1.10;;
16969;SDS011;8601;48.718;8.992;2023-03-08T15:29:23;1.20;;;1.07;;